createdAt,value
2018-12-05T00:01:43.658Z,102344.69
2018-12-05T00:04:11.970Z,102340.62
2018-12-05T00:06:40.460Z,102345.13
2018-12-05T00:09:08.857Z,102345.23
2018-12-05T00:11:38.456Z,102345.24
2018-12-05T00:16:41.642Z,102351.87
2018-12-05T00:19:10.253Z,102350.70
2018-12-05T00:21:38.527Z,102346.71
2018-12-05T00:24:06.954Z,102354.66
2018-12-05T00:26:35.300Z,102349.41
2018-12-05T00:29:03.644Z,102359.19
2018-12-05T00:31:31.939Z,102350.66
2018-12-05T00:34:00.225Z,102360.22
2018-12-05T00:36:28.556Z,102357.92
2018-12-05T00:38:56.957Z,102350.80
2018-12-05T00:41:25.326Z,102348.06
2018-12-05T00:43:53.638Z,102343.79
2018-12-05T00:46:21.936Z,102353.05
2018-12-05T00:48:50.245Z,102352.75
2018-12-05T00:51:18.544Z,102363.23
2018-12-05T00:53:46.829Z,102362.55
2018-12-05T00:56:15.170Z,102364.45
2018-12-05T00:58:43.611Z,102360.78
2018-12-05T01:01:11.949Z,102359.72
2018-12-05T01:03:40.486Z,102357.60
2018-12-05T01:06:08.865Z,102368.08
2018-12-05T01:08:37.173Z,102369.55
2018-12-05T01:11:05.685Z,102369.58
2018-12-05T01:13:33.965Z,102367.08
2018-12-05T01:16:02.285Z,102378.24
2018-12-05T01:18:30.586Z,102382.41
2018-12-05T01:20:58.878Z,102381.69
2018-12-05T01:23:27.183Z,102378.20
2018-12-05T01:25:55.816Z,102384.20
2018-12-05T01:28:24.091Z,102389.52
2018-12-05T01:30:58.126Z,102386.86
2018-12-05T01:33:26.511Z,102381.30
2018-12-05T01:35:54.780Z,102378.59
2018-12-05T01:38:23.085Z,102385.32
2018-12-05T01:40:51.410Z,102383.31
2018-12-05T01:43:19.735Z,102388.70
2018-12-05T01:45:48.210Z,102382.74
2018-12-05T01:48:16.501Z,102392.28
2018-12-05T01:50:44.798Z,102382.52
2018-12-05T01:53:13.095Z,102390.98
2018-12-05T01:55:41.411Z,102387.05
2018-12-05T01:58:09.674Z,102387.20
2018-12-05T02:00:38.044Z,102388.39
2018-12-05T02:03:06.369Z,102385.39
2018-12-05T02:05:34.687Z,102387.36
2018-12-05T02:08:03.130Z,102397.84
2018-12-05T02:10:31.625Z,102397.92
2018-12-05T02:12:59.921Z,102397.83
2018-12-05T02:15:28.228Z,102398.08
2018-12-05T02:17:56.500Z,102407.53
2018-12-05T02:20:24.829Z,102409.73
2018-12-05T02:22:53.155Z,102404.06
2018-12-05T02:25:21.419Z,102411.08
2018-12-05T02:27:49.782Z,102410.68
2018-12-05T02:30:18.672Z,102409.87
2018-12-05T02:32:46.948Z,102406.47
2018-12-05T02:35:15.291Z,102400.38
2018-12-05T02:37:43.614Z,102404.30
2018-12-05T02:40:11.914Z,102401.72
2018-12-05T02:42:40.243Z,102399.25
2018-12-05T02:45:08.716Z,102404.88
2018-12-05T02:47:37.007Z,102408.41
2018-12-05T02:50:05.458Z,102405.83
2018-12-05T02:52:34.017Z,102403.37
2018-12-05T02:55:02.376Z,102405.53
2018-12-05T02:57:30.735Z,102400.23
2018-12-05T02:59:59.219Z,102399.05
2018-12-05T03:02:27.560Z,102399.44
2018-12-05T03:04:56.046Z,102391.27
2018-12-05T03:07:24.459Z,102395.11
2018-12-05T03:09:52.835Z,102387.40
2018-12-05T03:12:21.193Z,102384.34
2018-12-05T03:14:50.251Z,102382.44
2018-12-05T03:17:18.703Z,102384.48
2018-12-05T03:19:47.220Z,102385.91
2018-12-05T03:22:15.535Z,102391.73
2018-12-05T03:24:43.871Z,102388.20
2018-12-05T03:27:12.211Z,102388.64
2018-12-05T03:29:40.521Z,102395.01
2018-12-05T03:32:08.993Z,102394.78
2018-12-05T03:34:37.560Z,102387.95
2018-12-05T03:37:06.138Z,102393.59
2018-12-05T03:39:34.533Z,102394.84
2018-12-05T03:42:03.102Z,102392.06
2018-12-05T03:44:31.521Z,102394.49
2018-12-05T03:47:00.053Z,102388.84
2018-12-05T03:49:28.352Z,102401.83
2018-12-05T03:51:56.800Z,102407.66
2018-12-05T03:54:25.221Z,102412.72
2018-12-05T03:56:53.562Z,102411.99
2018-12-05T03:59:21.929Z,102425.66
2018-12-05T04:01:50.237Z,102429.16
2018-12-05T04:04:18.635Z,102429.95
2018-12-05T04:06:47.108Z,102430.36
2018-12-05T04:09:15.520Z,102439.13
2018-12-05T04:11:43.864Z,102444.63
2018-12-05T04:14:12.316Z,102440.77
2018-12-05T04:16:40.723Z,102443.72
2018-12-05T04:19:09.216Z,102447.63
2018-12-05T04:21:37.736Z,102441.09
2018-12-05T04:24:06.075Z,102441.02
2018-12-05T04:26:34.448Z,102442.25
2018-12-05T04:29:02.864Z,102440.91
2018-12-05T04:31:31.211Z,102444.09
2018-12-05T04:33:59.553Z,102438.84
2018-12-05T04:36:27.977Z,102444.95
2018-12-05T04:38:56.261Z,102446.58
2018-12-05T04:41:24.694Z,102441.45
2018-12-05T04:43:53.119Z,102445.03
2018-12-05T04:46:21.591Z,102432.99
2018-12-05T04:48:50.019Z,102434.13
2018-12-05T04:51:18.555Z,102430.20
2018-12-05T04:53:46.934Z,102423.99
2018-12-05T04:56:15.415Z,102432.41
2018-12-05T04:58:43.825Z,102432.98
2018-12-05T05:01:12.183Z,102433.75
2018-12-05T05:03:40.655Z,102441.63
2018-12-05T05:06:09.137Z,102439.97
2018-12-05T05:08:37.452Z,102439.03
2018-12-05T05:11:05.829Z,102449.22
2018-12-05T05:13:34.285Z,102444.42
2018-12-05T05:16:02.758Z,102445.75
2018-12-05T05:18:31.150Z,102447.05
2018-12-05T05:20:59.619Z,102436.57
2018-12-05T05:23:28.110Z,102440.98
2018-12-05T05:25:56.593Z,102438.38
2018-12-05T05:28:25.489Z,102444.38
2018-12-05T05:30:54.062Z,102447.22
2018-12-05T05:33:22.391Z,102436.55
2018-12-05T05:35:50.931Z,102443.84
2018-12-05T05:38:19.325Z,102442.12
2018-12-05T05:40:47.725Z,102453.15
2018-12-05T05:43:16.166Z,102453.61
2018-12-05T05:45:44.473Z,102456.50
2018-12-05T05:48:12.830Z,102452.42
2018-12-05T05:50:41.426Z,102459.36
2018-12-05T05:53:09.785Z,102464.58
2018-12-05T05:55:38.100Z,102458.16
2018-12-05T05:58:06.647Z,102463.78
2018-12-05T06:00:35.009Z,102463.32
2018-12-05T06:03:03.406Z,102456.70
2018-12-05T06:05:31.892Z,102458.31
2018-12-05T06:08:00.340Z,102456.97
2018-12-05T06:10:28.752Z,102467.72
2018-12-05T06:12:57.731Z,102471.67
2018-12-05T06:15:26.090Z,102481.16
2018-12-05T06:17:54.430Z,102478.88
2018-12-05T06:20:22.891Z,102484.75
2018-12-05T06:22:51.215Z,102479.53
2018-12-05T06:25:19.499Z,102471.66
2018-12-05T06:27:48.073Z,102470.58
2018-12-05T06:30:16.417Z,102468.63
2018-12-05T06:32:44.751Z,102456.60
2018-12-05T06:35:13.149Z,102459.77
2018-12-05T06:37:41.454Z,102450.83
2018-12-05T06:40:09.805Z,102451.09
2018-12-05T06:42:38.084Z,102445.09
2018-12-05T06:45:06.425Z,102454.16
2018-12-05T06:47:34.737Z,102454.22
2018-12-05T06:50:03.150Z,102464.03
2018-12-05T06:52:31.498Z,102466.91
2018-12-05T06:54:59.790Z,102474.94
2018-12-05T06:57:28.485Z,102474.34
2018-12-05T06:59:56.770Z,102478.15
2018-12-05T07:02:25.058Z,102475.68
2018-12-05T07:04:53.394Z,102480.69
2018-12-05T07:07:21.693Z,102486.83
2018-12-05T07:09:50.016Z,102494.38
2018-12-05T07:12:18.387Z,102488.91
2018-12-05T07:14:46.673Z,102492.52
2018-12-05T07:17:14.966Z,102493.58
2018-12-05T07:19:43.342Z,102492.03
2018-12-05T07:22:11.661Z,102491.95
2018-12-05T07:24:39.955Z,102492.28
2018-12-05T07:27:08.308Z,102494.84
2018-12-05T07:29:36.605Z,102491.56
2018-12-05T07:32:05.878Z,102489.77
2018-12-05T07:34:34.176Z,102486.37
2018-12-05T07:37:02.461Z,102485.70
2018-12-05T07:39:30.796Z,102484.63
2018-12-05T07:41:59.188Z,102487.69
2018-12-05T07:44:27.488Z,102486.60
2018-12-05T07:46:55.796Z,102481.80
2018-12-05T07:49:24.089Z,102474.96
2018-12-05T07:51:52.476Z,102473.33
2018-12-05T07:54:20.792Z,102478.38
2018-12-05T07:56:49.169Z,102485.33
2018-12-05T07:59:17.435Z,102482.98
2018-12-05T08:01:45.776Z,102481.02
2018-12-05T08:04:14.173Z,102479.95
2018-12-05T08:06:42.473Z,102477.55
2018-12-05T08:09:10.811Z,102490.87
2018-12-05T08:11:39.159Z,102489.02
2018-12-05T08:14:07.453Z,102491.88
2018-12-05T08:16:35.766Z,102491.56
2018-12-05T08:19:04.110Z,102496.20
2018-12-05T08:21:32.406Z,102491.39
2018-12-05T08:24:00.712Z,102494.48
2018-12-05T08:26:29.449Z,102489.08
2018-12-05T08:28:57.815Z,102487.16
2018-12-05T08:31:26.395Z,102494.08
2018-12-05T08:33:54.723Z,102491.30
2018-12-05T08:36:23.032Z,102500.01
2018-12-05T08:38:51.325Z,102502.91
2018-12-05T08:41:19.670Z,102493.52
2018-12-05T08:43:47.976Z,102484.98
2018-12-05T08:46:16.272Z,102487.55
2018-12-05T08:48:44.958Z,102490.27
2018-12-05T08:51:13.342Z,102486.22
2018-12-05T08:53:41.665Z,102488.78
2018-12-05T08:56:10.021Z,102485.69
2018-12-05T08:58:38.310Z,102488.63
2018-12-05T09:01:06.648Z,102491.72
2018-12-05T09:03:34.971Z,102500.47
2018-12-05T09:06:03.275Z,102501.09
2018-12-05T09:08:31.639Z,102496.88
2018-12-05T09:11:00.337Z,102503.78
2018-12-05T09:13:28.630Z,102494.13
2018-12-05T09:15:56.961Z,102494.05
2018-12-05T09:18:25.320Z,102497.75
2018-12-05T09:20:53.605Z,102493.37
2018-12-05T09:23:21.901Z,102493.64
2018-12-05T09:25:50.232Z,102496.39
2018-12-05T09:28:18.529Z,102494.25
2018-12-05T09:30:46.947Z,102491.44
2018-12-05T09:33:15.582Z,102494.16
2018-12-05T09:35:43.897Z,102495.70
2018-12-05T09:38:12.205Z,102488.85
2018-12-05T09:40:40.575Z,102492.77
2018-12-05T09:43:08.857Z,102487.37
2018-12-05T09:45:37.147Z,102484.98
2018-12-05T09:48:05.517Z,102483.28
2018-12-05T09:50:33.825Z,102467.37
2018-12-05T09:53:02.128Z,102470.24
2018-12-05T09:55:30.914Z,102466.95
2018-12-05T09:57:59.225Z,102469.20
2018-12-05T10:00:27.560Z,102467.77
2018-12-05T10:02:55.877Z,102459.79
2018-12-05T10:05:24.180Z,102455.03
2018-12-05T10:07:52.470Z,102458.73
2018-12-05T10:10:20.874Z,102453.31
2018-12-05T10:12:49.219Z,102453.09
2018-12-05T10:15:17.511Z,102458.33
2018-12-05T10:17:46.271Z,102450.33
2018-12-05T10:20:14.588Z,102448.17
2018-12-05T10:22:42.917Z,102439.77
2018-12-05T10:25:11.259Z,102445.47
2018-12-05T10:27:39.606Z,102444.98
2018-12-05T10:30:08.573Z,102440.81
2018-12-05T10:32:36.978Z,102453.30
2018-12-05T10:35:05.349Z,102443.61
2018-12-05T10:37:33.670Z,102443.81
2018-12-05T10:40:02.124Z,102439.27
2018-12-05T10:42:30.413Z,102431.22
2018-12-05T10:44:58.719Z,102428.84
2018-12-05T10:47:27.084Z,102424.78
2018-12-05T10:49:55.383Z,102423.66
2018-12-05T10:52:23.698Z,102421.64
2018-12-05T10:54:52.065Z,102423.83
2018-12-05T10:57:20.382Z,102425.22
2018-12-05T10:59:48.703Z,102421.47
2018-12-05T11:02:23.113Z,102423.48
2018-12-05T11:04:56.973Z,102422.62
2018-12-05T11:07:30.919Z,102417.08
2018-12-05T11:10:04.575Z,102410.62
2018-12-05T11:12:38.352Z,102415.18
2018-12-05T11:15:12.271Z,102408.53
2018-12-05T11:17:43.789Z,102402.48
2018-12-05T11:20:17.487Z,102394.69
2018-12-05T11:25:56.990Z,102395.72
2018-12-05T11:28:25.329Z,102382.45
2018-12-05T11:30:53.641Z,102390.61
2018-12-05T11:33:22.064Z,102388.96
2018-12-05T11:35:50.477Z,102382.73
2018-12-05T11:38:18.811Z,102382.37
2018-12-05T11:40:47.168Z,102387.52
2018-12-05T11:43:15.540Z,102381.60
2018-12-05T11:45:43.868Z,102376.06
2018-12-05T11:48:12.174Z,102371.28
2018-12-05T11:50:40.571Z,102373.42
2018-12-05T11:53:08.893Z,102364.84
2018-12-05T11:55:37.183Z,102360.62
2018-12-05T11:58:05.690Z,102351.56
2018-12-05T12:00:34.074Z,102355.94
2018-12-05T12:03:02.407Z,102358.94
2018-12-05T12:05:30.755Z,102356.89
2018-12-05T12:07:59.179Z,102357.30
2018-12-05T12:10:32.917Z,102342.11
2018-12-05T12:13:05.729Z,102342.38
2018-12-05T12:15:34.435Z,102335.36
2018-12-05T12:18:02.853Z,102341.61
2018-12-05T12:20:31.264Z,102347.86
2018-12-05T12:22:59.702Z,102336.83
2018-12-05T12:25:28.076Z,102333.50
2018-12-05T12:27:56.371Z,102334.86
2018-12-05T12:30:24.756Z,102331.48
2018-12-05T12:32:53.103Z,102327.66
2018-12-05T12:35:21.374Z,102323.08
2018-12-05T12:37:49.884Z,102329.17
2018-12-05T12:40:18.239Z,102318.05
2018-12-05T12:42:46.608Z,102315.90
2018-12-05T12:45:15.022Z,102308.98
2018-12-05T12:47:43.391Z,102305.75
2018-12-05T12:50:11.751Z,102300.19
2018-12-05T12:52:40.184Z,102299.52
2018-12-05T12:55:08.707Z,102299.75
2018-12-05T12:57:37.005Z,102297.13
2018-12-05T13:00:07.990Z,102286.95
2018-12-05T13:02:36.323Z,102289.03
2018-12-05T13:05:04.894Z,102280.91
2018-12-05T13:07:33.201Z,102288.16
2018-12-05T13:10:01.515Z,102279.24
2018-12-05T13:12:31.890Z,102274.05
2018-12-05T13:15:00.265Z,102273.52
2018-12-05T13:17:28.541Z,102267.98
2018-12-05T13:19:56.850Z,102272.22
2018-12-05T13:22:25.403Z,102266.56
2018-12-05T13:24:53.736Z,102266.11
2018-12-05T13:27:22.045Z,102274.73
2018-12-05T13:29:50.461Z,102269.08
2018-12-05T13:32:18.807Z,102268.68
2018-12-05T13:34:47.116Z,102264.30
2018-12-05T13:37:15.425Z,102256.70
2018-12-05T13:39:43.725Z,102252.73
2018-12-05T13:42:12.107Z,102239.44
2018-12-05T13:44:40.733Z,102248.64
2018-12-05T13:47:09.125Z,102244.44
2018-12-05T13:49:37.422Z,102245.59
2018-12-05T13:52:05.821Z,102250.89
2018-12-05T13:54:34.151Z,102243.77
2018-12-05T13:57:02.481Z,102242.42
2018-12-05T13:59:31.067Z,102234.30
2018-12-05T14:01:59.378Z,102239.23
2018-12-05T14:04:27.691Z,102234.50
2018-12-05T14:06:56.484Z,102234.60
2018-12-05T14:09:24.773Z,102223.97
2018-12-05T14:11:53.064Z,102214.95
2018-12-05T14:14:21.471Z,102225.19
2018-12-05T14:16:49.796Z,102216.88
2018-12-05T14:19:18.199Z,102215.56
2018-12-05T14:21:46.606Z,102210.66
2018-12-05T14:24:14.933Z,102203.72
2018-12-05T14:26:43.266Z,102201.52
2018-12-05T14:29:11.985Z,102202.59
2018-12-05T14:31:40.301Z,102195.61
2018-12-05T14:34:08.750Z,102199.55
2018-12-05T14:36:37.126Z,102199.59
2018-12-05T14:39:07.217Z,102196.90
2018-12-05T14:41:35.553Z,102198.30
2018-12-05T14:44:03.937Z,102194.95
2018-12-05T14:46:32.242Z,102193.80
2018-12-05T14:49:00.564Z,102194.95
2018-12-05T14:51:29.022Z,102189.63
2018-12-05T14:53:57.378Z,102185.91
2018-12-05T14:56:25.785Z,102184.86
2018-12-05T14:58:54.099Z,102175.68
2018-12-05T15:01:22.409Z,102176.30
2018-12-05T15:03:50.709Z,102178.45
2018-12-05T15:06:19.080Z,102179.41
2018-12-05T15:08:47.414Z,102176.66
2018-12-05T15:11:15.739Z,102178.02
2018-12-05T15:13:44.265Z,102174.13
2018-12-05T15:16:12.601Z,102167.09
2018-12-05T15:18:40.904Z,102168.45
2018-12-05T15:21:09.268Z,102158.84
2018-12-05T15:23:37.561Z,102152.52
2018-12-05T15:26:05.840Z,102147.03
2018-12-05T15:28:34.197Z,102144.87
2018-12-05T15:31:02.547Z,102136.80
2018-12-05T15:33:30.841Z,102140.34
2018-12-05T15:35:59.230Z,102140.78
2018-12-05T15:38:27.671Z,102134.48
2018-12-05T15:40:55.981Z,102136.12
2018-12-05T15:43:24.325Z,102130.05
2018-12-05T15:45:52.669Z,102127.64
2018-12-05T15:48:20.969Z,102127.73
2018-12-05T15:50:49.319Z,102116.96
2018-12-05T15:53:17.622Z,102115.31
2018-12-05T15:55:46.058Z,102110.50
2018-12-05T15:58:14.547Z,102112.48
2018-12-05T16:00:42.833Z,102106.83
2018-12-05T16:03:11.224Z,102095.55
2018-12-05T16:05:39.596Z,102097.94
2018-12-05T16:08:07.914Z,102097.86
2018-12-05T16:10:36.237Z,102091.73
2018-12-05T16:13:05.250Z,102088.28
2018-12-05T16:15:33.904Z,102081.18
2018-12-05T16:18:02.233Z,102078.88
2018-12-05T16:20:30.618Z,102079.06
2018-12-05T16:22:58.937Z,102073.59
2018-12-05T16:25:27.291Z,102073.98
2018-12-05T16:27:55.644Z,102063.83
2018-12-05T16:30:23.946Z,102061.05
2018-12-05T16:32:52.238Z,102056.16
2018-12-05T16:35:20.578Z,102046.95
2018-12-05T16:37:48.905Z,102043.59
2018-12-05T16:40:17.192Z,102034.48
2018-12-05T16:42:45.557Z,102029.41
2018-12-05T16:45:13.886Z,102024.81
2018-12-05T16:47:42.204Z,102027.88
2018-12-05T16:50:10.625Z,102025.28
2018-12-05T16:52:38.963Z,102021.53
2018-12-05T16:55:07.267Z,102020.06
2018-12-05T16:57:35.592Z,102018.45
2018-12-05T17:00:07.332Z,102017.70
2018-12-05T17:02:35.613Z,102005.63
2018-12-05T17:05:05.397Z,102002.87
2018-12-05T17:07:33.736Z,102003.07
2018-12-05T17:10:02.166Z,102001.55
2018-12-05T17:12:30.521Z,101992.33
2018-12-05T17:14:58.924Z,101995.36
2018-12-05T17:17:27.348Z,101988.38
2018-12-05T17:19:55.668Z,101978.23
2018-12-05T17:22:23.948Z,101978.22
2018-12-05T17:24:52.580Z,101978.42
2018-12-05T17:27:21.142Z,101972.77
2018-12-05T17:29:49.433Z,101969.78
2018-12-05T17:32:17.753Z,101975.14
2018-12-05T17:34:46.127Z,101969.78
2018-12-05T17:37:14.431Z,101961.75
2018-12-05T17:39:42.707Z,101968.34
2018-12-05T17:42:11.066Z,101969.03
2018-12-05T17:44:39.412Z,101947.64
2018-12-05T17:47:07.681Z,101958.86
2018-12-05T17:49:36.181Z,101951.38
2018-12-05T17:52:04.509Z,101942.56
2018-12-05T17:54:32.797Z,101943.81
2018-12-05T17:57:01.249Z,101927.89
2018-12-05T17:59:29.555Z,101927.62
2018-12-05T18:01:57.851Z,101922.08
2018-12-05T18:04:26.155Z,101918.15
2018-12-05T18:06:54.517Z,101915.86
2018-12-05T18:09:22.871Z,101916.97
2018-12-05T18:11:51.407Z,101912.84
2018-12-05T18:14:19.750Z,101914.79
2018-12-05T18:16:48.127Z,101903.30
2018-12-05T18:19:16.457Z,101904.82
2018-12-05T18:21:44.874Z,101897.20
2018-12-05T18:24:13.295Z,101891.52
2018-12-05T18:26:41.649Z,101897.18
2018-12-05T18:29:09.966Z,101887.39
2018-12-05T18:31:38.328Z,101881.16
2018-12-05T18:34:06.978Z,101886.63
2018-12-05T18:36:35.329Z,101866.30
2018-12-05T18:39:05.622Z,101864.59
2018-12-05T18:41:33.945Z,101870.12
2018-12-05T18:44:02.936Z,101867.35
2018-12-05T18:46:31.240Z,101862.06
2018-12-05T18:48:59.582Z,101870.12
2018-12-05T18:51:27.916Z,101858.45
2018-12-05T18:53:56.234Z,101853.11
2018-12-05T18:56:24.745Z,101856.78
2018-12-05T18:58:53.053Z,101860.61
2018-12-05T19:01:21.376Z,101851.72
2018-12-05T19:03:49.716Z,101843.19
2018-12-05T19:06:18.055Z,101845.34
2018-12-05T19:08:46.377Z,101840.90
2018-12-05T19:11:14.774Z,101838.52
2018-12-05T19:13:48.520Z,101824.92
2018-12-05T19:16:17.068Z,101822.32
2018-12-05T19:18:45.519Z,101823.73
2018-12-05T19:21:13.831Z,101818.32
2018-12-05T19:23:42.176Z,101810.38
2018-12-05T19:26:10.509Z,101817.05
2018-12-05T19:28:38.795Z,101807.18
2018-12-05T19:31:07.177Z,101800.23
2018-12-05T19:33:35.587Z,101802.43
2018-12-05T19:36:03.981Z,101795.75
2018-12-05T19:38:32.396Z,101788.56
2018-12-05T19:41:00.815Z,101787.31
2018-12-05T19:43:29.121Z,101789.00
2018-12-05T19:45:57.531Z,101782.97
2018-12-05T19:48:25.941Z,101783.53
2018-12-05T19:50:55.175Z,101772.92
2018-12-05T19:53:23.534Z,101783.91
2018-12-05T19:55:51.893Z,101781.36
2018-12-05T19:58:20.298Z,101768.39
2018-12-05T20:00:49.005Z,101759.72
2018-12-05T20:03:17.303Z,101759.20
2018-12-05T20:05:45.652Z,101753.31
2018-12-05T20:08:14.017Z,101745.27
2018-12-05T20:10:42.323Z,101753.70
2018-12-05T20:13:10.684Z,101739.48
2018-12-05T20:15:39.215Z,101736.84
2018-12-05T20:18:08.392Z,101733.77
2018-12-05T20:20:36.736Z,101724.45
2018-12-05T20:23:05.527Z,101731.47
2018-12-05T20:25:34.086Z,101726.79
2018-12-05T20:28:02.379Z,101724.70
2018-12-05T20:30:30.787Z,101728.27
2018-12-05T20:32:59.137Z,101719.86
2018-12-05T20:35:27.630Z,101716.11
2018-12-05T20:37:56.317Z,101705.64
2018-12-05T20:40:24.667Z,101710.73
2018-12-05T20:42:53.007Z,101710.47
2018-12-05T20:45:21.477Z,101709.08
2018-12-05T20:47:49.783Z,101708.32
2018-12-05T20:50:18.124Z,101704.33
2018-12-05T20:52:46.454Z,101701.17
2018-12-05T20:55:14.845Z,101690.65
2018-12-05T20:57:43.268Z,101688.91
2018-12-05T21:00:12.032Z,101685.28
2018-12-05T21:02:40.309Z,101676.89
2018-12-05T21:05:08.684Z,101671.63
2018-12-05T21:07:37.096Z,101671.44
2018-12-05T21:10:05.640Z,101668.63
2018-12-05T21:12:33.950Z,101664.16
2018-12-05T21:15:02.347Z,101659.12
2018-12-05T21:17:30.706Z,101656.38
2018-12-05T21:19:59.050Z,101648.32
2018-12-05T21:22:27.397Z,101649.64
2018-12-05T21:24:55.748Z,101639.51
2018-12-05T21:27:24.500Z,101642.97
2018-12-05T21:29:53.057Z,101640.61
2018-12-05T21:32:21.364Z,101648.67
2018-12-05T21:34:49.678Z,101644.80
2018-12-05T21:37:18.016Z,101639.16
2018-12-05T21:39:46.466Z,101639.09
2018-12-05T21:42:14.950Z,101628.55
2018-12-05T21:44:43.283Z,101628.69
2018-12-05T21:47:11.599Z,101629.25
2018-12-05T21:49:39.933Z,101627.95
2018-12-05T21:52:08.435Z,101625.70
2018-12-05T21:54:36.769Z,101623.25
2018-12-05T21:57:05.208Z,101622.45
2018-12-05T21:59:33.673Z,101620.47
2018-12-05T22:02:01.967Z,101623.25
2018-12-05T22:04:30.286Z,101622.64
2018-12-05T22:06:58.613Z,101616.11
2018-12-05T22:09:26.924Z,101626.41
2018-12-05T22:11:55.229Z,101623.91
2018-12-05T22:14:23.653Z,101614.20
2018-12-05T22:16:51.977Z,101619.95
2018-12-05T22:19:20.305Z,101611.72
2018-12-05T22:21:48.649Z,101620.65
2018-12-05T22:24:16.962Z,101624.00
2018-12-05T22:26:45.280Z,101624.02
2018-12-05T22:29:13.616Z,101620.27
2018-12-05T22:31:41.988Z,101631.92
2018-12-05T22:34:10.299Z,101611.86
2018-12-05T22:36:38.754Z,101604.74
2018-12-05T22:39:08.095Z,101612.32
2018-12-05T22:41:36.472Z,101611.12
2018-12-05T22:44:04.949Z,101611.22
2018-12-05T22:46:33.261Z,101600.36
2018-12-05T22:49:01.591Z,101597.86
2018-12-05T22:51:29.894Z,101592.25
2018-12-05T22:53:58.238Z,101586.89
2018-12-05T22:56:26.568Z,101583.75
2018-12-05T22:58:54.988Z,101576.92
2018-12-05T23:01:23.336Z,101579.42
2018-12-05T23:03:51.619Z,101576.55
2018-12-05T23:06:19.958Z,101572.00
2018-12-05T23:08:48.237Z,101566.47
2018-12-05T23:11:16.681Z,101565.06
2018-12-05T23:13:44.987Z,101556.63
2018-12-05T23:16:13.312Z,101553.91
2018-12-05T23:18:41.660Z,101561.47
2018-12-05T23:21:10.057Z,101549.43
2018-12-05T23:23:38.347Z,101544.06
2018-12-05T23:26:06.682Z,101549.72
2018-12-05T23:28:35.023Z,101549.67
2018-12-05T23:31:03.319Z,101550.91
2018-12-05T23:33:31.613Z,101539.83
2018-12-05T23:35:59.941Z,101535.39
2018-12-05T23:38:28.249Z,101532.45
2018-12-05T23:40:56.555Z,101524.91
2018-12-05T23:43:25.056Z,101515.58
2018-12-05T23:45:53.325Z,101505.74
2018-12-05T23:48:21.734Z,101494.26
2018-12-05T23:50:50.053Z,101490.00
2018-12-05T23:53:18.350Z,101486.02
2018-12-05T23:55:46.717Z,101481.42
2018-12-05T23:58:15.063Z,101486.42
